Time;durP1;ratioP1;P1;durP2;ratioP2;P2;SDS_P1;SDS_P2;PMS_P1;PMS_P2;Temp;Humidity;BMP_temperature;BMP_pressure;BME280_temperature;BME280_humidity;BME280_pressure;Samples;Min_cycle;Max_cycle;Signal;HPM_P1;HPM_P2
2021/11/16 00:01:03;;;;;;;46.05;21.35;;;;;;;4.66;92.97;101971.81;5007791;28;20049;-80
2021/11/16 00:03:30;;;;;;;49.28;23.13;;;;;;;4.68;93.11;101974.47;5009372;28;21141;-77
2021/11/16 00:05:57;;;;;;;41.67;21.70;;;;;;;4.68;92.94;101975.38;5020692;28;20041;-84
2021/11/16 00:08:23;;;;;;;50.88;25.35;;;;;;;4.69;93.11;101969.31;5022223;28;20049;-82
2021/11/16 00:10:50;;;;;;;44.20;24.00;;;;;;;4.70;93.15;101970.22;5017731;28;20049;-77
2021/11/16 00:13:16;;;;;;;45.40;21.58;;;;;;;4.67;93.24;101975.28;5025713;28;20053;-83
2021/11/16 00:15:48;;;;;;;48.97;23.52;;;;;;;4.66;93.12;101968.34;5033133;28;20045;-79
2021/11/16 00:18:18;;;;;;;48.70;23.83;;;;;;;4.64;93.44;101958.81;5013880;28;20029;-79
2021/11/16 00:20:45;;;;;;;39.95;20.40;;;;;;;4.64;93.41;101960.50;5008338;28;20053;-81
2021/11/16 00:23:18;;;;;;;49.95;22.80;;;;;;;4.67;93.12;101952.84;5034102;28;20507;-78
2021/11/16 00:25:54;;;;;;;49.67;24.23;;;;;;;4.67;93.48;101950.25;5011301;28;20071;-78
2021/11/16 00:28:23;;;;;;;49.72;23.40;;;;;;;4.67;93.37;101957.13;5014123;28;20555;-79
2021/11/16 00:30:50;;;;;;;44.05;22.13;;;;;;;4.66;93.51;101950.19;5009187;28;20065;-78
2021/11/16 00:33:20;;;;;;;42.05;23.48;;;;;;;4.64;93.93;101948.44;5000208;28;20050;-81
2021/11/16 00:35:47;;;;;;;49.92;23.35;;;;;;;4.65;93.80;101946.69;5014842;28;20092;-77
2021/11/16 00:38:16;;;;;;;47.50;22.52;;;;;;;4.65;94.04;101951.88;4997506;28;20045;-80
2021/11/16 00:40:48;;;;;;;41.58;22.42;;;;;;;4.64;93.73;101951.03;5011677;28;20048;-79
2021/11/16 00:43:16;;;;;;;43.83;23.45;;;;;;;4.65;94.14;101954.47;4997462;28;20484;-77
2021/11/16 00:45:46;;;;;;;43.42;23.60;;;;;;;4.64;94.32;101955.31;5005299;28;20053;-83
2021/11/16 00:48:13;;;;;;;39.53;21.02;;;;;;;4.63;94.24;101957.03;5012367;28;20045;-80
2021/11/16 00:50:43;;;;;;;48.70;22.40;;;;;;;4.60;94.96;101953.44;5008336;28;20660;-78
2021/11/16 00:53:11;;;;;;;44.88;23.20;;;;;;;4.60;94.72;101956.94;5012671;28;20045;-79
2021/11/16 00:55:38;;;;;;;43.00;22.48;;;;;;;4.59;94.79;101952.56;5011009;28;20491;-80
2021/11/16 00:58:05;;;;;;;45.15;23.15;;;;;;;4.60;94.97;101950.84;5010336;28;20046;-77
2021/11/16 01:00:31;;;;;;;44.22;22.55;;;;;;;4.61;95.05;101945.69;4997217;28;20053;-79
2021/11/16 01:03:00;;;;;;;38.33;21.63;;;;;;;4.59;95.19;101942.19;4993619;28;20060;-83
2021/11/16 01:05:27;;;;;;;43.10;22.58;;;;;;;4.58;94.96;101942.13;5009186;28;20042;-83
2021/11/16 01:07:54;;;;;;;42.08;20.55;;;;;;;4.59;94.93;101942.19;4996842;28;20602;-84
2021/11/16 01:10:22;;;;;;;36.97;20.73;;;;;;;4.58;95.25;101937.81;4992651;28;20041;-81
2021/11/16 01:12:49;;;;;;;43.42;20.35;;;;;;;4.58;95.04;101947.31;4992689;28;20107;-80
2021/11/16 01:15:17;;;;;;;41.13;22.48;;;;;;;4.57;95.42;101942.97;5006824;28;20365;-80
2021/11/16 01:17:45;;;;;;;44.13;21.83;;;;;;;4.57;95.29;101946.41;4993970;28;20495;-81
2021/11/16 01:20:16;;;;;;;46.30;21.70;;;;;;;4.55;95.32;101937.72;5002573;28;20048;-79
2021/11/16 01:22:44;;;;;;;42.47;21.65;;;;;;;4.54;95.20;101935.94;5007795;28;20069;-80
2021/11/16 01:25:12;;;;;;;43.88;22.40;;;;;;;4.51;95.46;101928.06;5005456;28;20777;-78
2021/11/16 01:27:40;;;;;;;42.67;22.02;;;;;;;4.51;95.12;101922.88;5009070;28;20037;-80
2021/11/16 01:30:15;;;;;;;42.42;21.90;;;;;;;4.50;95.04;101922.78;5017552;28;20053;-80
2021/11/16 01:32:45;;;;;;;47.08;23.15;;;;;;;4.48;95.08;101920.16;5027949;28;20057;-82
2021/11/16 01:35:13;;;;;;;49.08;23.58;;;;;;;4.44;95.13;101919.16;5012477;28;20567;-81
2021/11/16 01:37:40;;;;;;;43.40;22.88;;;;;;;4.42;94.95;101906.97;5011653;28;20073;-81
2021/11/16 01:40:14;;;;;;;52.90;25.25;;;;;;;4.40;95.45;101903.44;5003047;28;20729;-80
2021/11/16 01:42:41;;;;;;;44.05;24.23;;;;;;;4.37;95.12;101895.53;5011516;28;20584;-77
2021/11/16 01:45:09;;;;;;;43.63;24.73;;;;;;;4.34;95.12;101895.44;5010072;28;20037;-82
2021/11/16 01:47:35;;;;;;;42.55;22.42;;;;;;;4.37;95.52;101895.53;4994538;28;20045;-79
2021/11/16 01:50:04;;;;;;;46.58;23.42;;;;;;;4.37;95.12;101891.25;5018754;28;20147;-78
2021/11/16 01:52:31;;;;;;;53.97;24.77;;;;;;;4.39;95.15;101886.13;5000070;28;20107;-77
2021/11/16 01:54:58;;;;;;;46.05;21.55;;;;;;;4.41;95.20;101887.94;5009193;28;20038;-82
2021/11/16 01:57:27;;;;;;;41.30;21.02;;;;;;;4.41;94.78;101876.69;5026721;28;20045;-79
2021/11/16 01:59:54;;;;;;;38.97;20.80;;;;;;;4.38;95.33;101881.75;5008403;28;20562;-81
2021/11/16 02:02:20;;;;;;;50.45;23.73;;;;;;;4.37;95.54;101872.19;5019583;28;20073;-84
2021/11/16 02:04:47;;;;;;;46.08;23.45;;;;;;;4.34;95.66;101867.81;5007939;28;20590;-78
2021/11/16 02:07:14;;;;;;;47.88;21.80;;;;;;;4.31;95.17;101865.09;5013015;28;20045;-79
2021/11/16 02:09:48;;;;;;;46.28;24.10;;;;;;;4.30;95.45;101866.81;5010211;28;20046;-82
2021/11/16 02:12:15;;;;;;;46.00;21.38;;;;;;;4.33;95.51;101865.16;5029355;28;20046;-79
2021/11/16 02:14:43;;;;;;;42.05;20.23;;;;;;;4.35;95.52;101864.38;5000841;28;20046;-78
2021/11/16 02:17:10;;;;;;;46.50;23.58;;;;;;;4.32;95.52;101858.22;5011093;28;20152;-81
2021/11/16 02:19:37;;;;;;;46.95;22.52;;;;;;;4.31;95.69;101854.72;5007241;28;20480;-82
2021/11/16 02:22:05;;;;;;;42.90;21.98;;;;;;;4.34;95.59;101851.38;5009880;28;20157;-79
2021/11/16 02:24:32;;;;;;;52.95;23.45;;;;;;;4.38;95.63;101848.06;5009954;28;20235;-79
2021/11/16 02:26:59;;;;;;;48.70;23.17;;;;;;;4.40;95.61;101846.41;5011532;28;20053;-79
2021/11/16 02:29:25;;;;;;;46.42;23.40;;;;;;;4.36;95.33;101842.81;5026986;28;20052;-79
2021/11/16 02:31:54;;;;;;;45.65;22.45;;;;;;;4.30;96.01;101851.25;5008139;28;20061;-82
2021/11/16 02:34:25;;;;;;;47.58;22.67;;;;;;;4.22;96.36;101836.25;5013659;28;20049;-77
2021/11/16 02:36:56;;;;;;;54.38;22.25;;;;;;;4.25;96.64;101849.31;4996365;28;20053;-79
2021/11/16 02:39:23;;;;;;;53.92;24.70;;;;;;;4.26;96.29;101835.53;5009086;28;20054;-78
2021/11/16 02:41:54;;;;;;;47.15;24.27;;;;;;;4.25;96.57;101828.56;4993329;28;20711;-81
2021/11/16 02:44:23;;;;;;;46.88;22.20;;;;;;;4.26;96.36;101843.31;5007452;28;20049;-79
2021/11/16 02:46:52;;;;;;;47.33;22.95;;;;;;;4.26;96.38;101832.94;5009707;28;20108;-79
2021/11/16 02:49:19;;;;;;;47.47;23.85;;;;;;;4.26;96.19;101836.44;5027222;28;20135;-78
2021/11/16 02:51:46;;;;;;;47.00;23.45;;;;;;;4.28;96.22;101839.94;5007501;28;20050;-80
2021/11/16 02:54:18;;;;;;;52.13;25.05;;;;;;;4.26;96.41;101835.53;4991579;28;20046;-82
2021/11/16 02:56:47;;;;;;;46.13;22.58;;;;;;;4.25;96.45;101834.66;5012683;28;20052;-79
2021/11/16 02:59:15;;;;;;;46.10;22.73;;;;;;;4.23;96.50;101833.72;5026930;28;20129;-82
2021/11/16 03:01:46;;;;;;;47.80;22.85;;;;;;;4.22;96.72;101834.53;4989716;28;20056;-82
2021/11/16 03:04:24;;;;;;;46.50;23.65;;;;;;;4.25;96.59;101834.66;5008396;28;21197;-78
2021/11/16 03:06:50;;;;;;;50.63;22.42;;;;;;;4.24;96.92;101839.81;4996834;28;20095;-78
2021/11/16 03:09:17;;;;;;;53.42;25.55;;;;;;;4.21;96.91;101837.06;5003648;28;20677;-83
2021/11/16 03:11:44;;;;;;;50.05;23.92;;;;;;;4.19;96.90;101836.16;4990408;28;20042;-81
2021/11/16 03:14:10;;;;;;;48.90;23.63;;;;;;;4.22;96.64;101828.47;5009301;28;20038;-84
2021/11/16 03:16:39;;;;;;;60.90;26.02;;;;;;;4.23;96.49;101835.44;5008985;28;20864;-79
2021/11/16 03:19:06;;;;;;;54.58;26.92;;;;;;;4.21;96.89;101830.19;5004566;28;20128;-84
2021/11/16 03:21:33;;;;;;;56.50;26.80;;;;;;;4.21;96.81;101832.78;5009565;28;20041;-82
2021/11/16 03:24:02;;;;;;;58.38;26.75;;;;;;;4.20;96.79;101832.72;5009940;28;20124;-81
2021/11/16 03:26:29;;;;;;;55.38;27.02;;;;;;;4.21;96.89;101831.91;5010654;28;20052;-82
2021/11/16 03:29:00;;;;;;;61.88;26.35;;;;;;;4.23;97.04;101825.06;5029402;28;20041;-79
2021/11/16 03:31:37;;;;;;;57.53;27.15;;;;;;;4.24;96.97;101819.94;5006642;28;20131;-82
2021/11/16 03:34:04;;;;;;;57.05;26.40;;;;;;;4.28;97.07;101820.94;5011377;28;20147;-78
2021/11/16 03:36:32;;;;;;;48.40;25.23;;;;;;;4.28;96.94;101823.53;5016808;28;20045;-79
2021/11/16 03:39:03;;;;;;;48.42;23.65;;;;;;;4.26;96.46;101832.94;5037138;28;20037;-84
2021/11/16 03:41:37;;;;;;;56.63;25.85;;;;;;;4.25;96.76;101820.81;5009418;28;20033;-84
2021/11/16 03:44:05;;;;;;;58.28;26.65;;;;;;;4.23;96.65;101822.47;5015470;28;20084;-83
2021/11/16 03:46:31;;;;;;;54.40;25.02;;;;;;;4.23;96.88;101823.34;5029005;28;20045;-83
2021/11/16 03:48:58;;;;;;;60.38;27.77;;;;;;;4.24;96.64;101821.66;5026492;28;20054;-84
2021/11/16 03:51:24;;;;;;;58.78;25.35;;;;;;;4.20;96.94;101818.06;5021051;28;20042;-78
2021/11/16 03:53:53;;;;;;;54.92;25.08;;;;;;;4.21;97.08;101822.44;5030966;28;20053;-81
2021/11/16 03:56:20;;;;;;;51.67;25.08;;;;;;;4.21;96.97;101819.84;5019341;28;20728;-79
2021/11/16 03:58:47;;;;;;;52.25;25.55;;;;;;;4.21;97.07;101819.84;5005307;28;20056;-80
2021/11/16 04:01:15;;;;;;;58.22;27.88;;;;;;;4.23;97.44;101818.16;5011738;28;20049;-80
2021/11/16 04:03:42;;;;;;;60.90;25.98;;;;;;;4.23;97.09;101810.38;5018610;28;20536;-78
2021/11/16 04:06:09;;;;;;;62.55;28.10;;;;;;;4.22;96.96;101813.78;5013633;28;20042;-78
2021/11/16 04:08:36;;;;;;;63.90;28.83;;;;;;;4.22;97.48;101807.75;5012923;28;20053;-79
2021/11/16 04:11:03;;;;;;;60.83;27.55;;;;;;;4.17;97.44;101811.88;4992712;28;20041;-77
2021/11/16 04:13:31;;;;;;;62.38;26.83;;;;;;;4.16;97.44;101807.50;5018003;28;20608;-81
2021/11/16 04:16:02;;;;;;;58.78;29.30;;;;;;;4.14;97.61;101805.75;5015993;28;20050;-82
2021/11/16 04:18:29;;;;;;;69.25;29.38;;;;;;;4.16;97.66;101804.94;5034935;28;20052;-81
2021/11/16 04:20:57;;;;;;;62.40;30.90;;;;;;;4.15;97.71;101806.66;5012287;28;20567;-78
2021/11/16 04:23:26;;;;;;;64.18;29.80;;;;;;;4.14;97.80;101803.16;5031267;28;20038;-78
2021/11/16 04:25:54;;;;;;;60.47;29.10;;;;;;;4.15;98.00;101806.66;5011346;28;20475;-77
2021/11/16 04:28:23;;;;;;;62.05;28.88;;;;;;;4.19;97.51;101805.06;5012575;28;20095;-79
2021/11/16 04:30:52;;;;;;;68.25;31.33;;;;;;;4.20;97.89;101794.75;5008555;28;20495;-79
2021/11/16 04:33:20;;;;;;;61.15;27.55;;;;;;;4.18;97.56;101795.50;5012565;28;20913;-78
2021/11/16 04:35:48;;;;;;;67.47;28.17;;;;;;;4.20;97.61;101791.25;5010189;28;20092;-82
2021/11/16 04:38:17;;;;;;;65.75;29.38;;;;;;;4.18;97.66;101796.38;5010059;28;20053;-80
2021/11/16 04:40:51;;;;;;;66.22;29.65;;;;;;;4.20;97.75;101791.25;5008553;28;20038;-80
2021/11/16 04:43:20;;;;;;;69.45;29.02;;;;;;;4.18;97.75;101798.09;4997823;28;20128;-83
2021/11/16 04:45:53;;;;;;;62.33;28.33;;;;;;;4.16;98.13;101791.97;5012672;28;20064;-83
2021/11/16 04:48:42;;;;;;;61.03;27.05;;;;;;;4.16;97.91;101792.88;5008943;28;20076;-78
2021/11/16 04:51:34;;;;;;;59.38;26.95;;;;;;;4.13;97.93;101783.28;4992185;28;20049;-79
2021/11/16 04:59:49;;;;;;;61.43;26.90;;;;;;;4.10;97.98;101784.88;4997338;28;20300;-78
2021/11/16 05:02:35;;;;;;;65.18;29.38;;;;;;;4.10;98.83;101787.47;5004817;28;20082;-83
2021/11/16 05:05:27;;;;;;;68.00;31.40;;;;;;;4.09;98.63;101778.81;5009795;28;20053;-79
2021/11/16 05:08:05;;;;;;;64.72;27.30;;;;;;;4.10;98.79;101779.69;4985411;28;20074;-83
2021/11/16 05:10:34;;;;;;;70.43;29.52;;;;;;;4.11;98.77;101787.50;5005405;28;20115;-80
2021/11/16 05:13:00;;;;;;;73.45;30.58;;;;;;;4.10;98.72;101783.16;5010386;28;20132;-82
2021/11/16 05:15:28;;;;;;;74.38;30.90;;;;;;;4.09;99.01;101772.72;5003763;28;20152;-80
2021/11/16 05:17:55;;;;;;;70.15;31.05;;;;;;;4.06;98.97;101777.81;5008998;28;21211;-81
2021/11/16 05:20:23;;;;;;;61.85;29.92;;;;;;;4.06;98.90;101767.44;5004166;28;20739;-79
2021/11/16 05:22:55;;;;;;;67.80;29.75;;;;;;;4.08;98.63;101768.38;5007461;28;20572;-81
2021/11/16 05:25:23;;;;;;;71.78;29.92;;;;;;;4.09;98.84;101770.13;5008869;28;20050;-82
2021/11/16 05:27:50;;;;;;;71.85;31.50;;;;;;;4.09;99.08;101770.13;5011739;28;20056;-78
2021/11/16 05:30:17;;;;;;;62.28;27.52;;;;;;;4.11;98.99;101777.16;5004241;28;20712;-80
2021/11/16 05:32:44;;;;;;;71.32;28.73;;;;;;;4.15;99.05;101767.78;5006459;28;20119;-79
2021/11/16 05:35:13;;;;;;;69.93;30.20;;;;;;;4.17;98.80;101778.19;5007567;28;20053;-79
2021/11/16 05:37:42;;;;;;;65.78;28.17;;;;;;;4.17;98.93;101785.97;5011005;28;20084;-78
2021/11/16 05:40:10;;;;;;;69.63;31.83;;;;;;;4.17;98.89;101794.59;5010942;28;20048;-79
2021/11/16 05:42:37;;;;;;;76.32;32.78;;;;;;;4.19;98.74;101792.09;5021396;28;20072;-80
2021/11/16 05:45:04;;;;;;;79.70;32.03;;;;;;;4.19;98.71;101798.16;5016432;28;20168;-78
2021/11/16 05:47:42;;;;;;;;;;;;;;;;;;;;;
2021/11/16 05:50:11;;;;;;;77.78;30.23;;;;;;;4.20;98.95;101793.84;5016411;28;20061;-80
2021/11/16 05:52:39;;;;;;;71.85;30.50;;;;;;;4.20;99.09;101797.31;5013287;28;20045;-78
2021/11/16 05:55:08;;;;;;;64.88;28.15;;;;;;;4.20;99.08;101793.84;5009440;28;20045;-84
2021/11/16 05:57:36;;;;;;;65.40;28.45;;;;;;;4.16;99.20;101790.28;5011354;28;20049;-79
2021/11/16 06:00:09;;;;;;;62.20;29.60;;;;;;;4.16;99.15;101786.78;5018001;28;20062;-78
2021/11/16 06:02:37;;;;;;;65.93;29.50;;;;;;;4.13;99.12;101790.16;5015648;28;20053;-82
2021/11/16 06:05:04;;;;;;;66.05;28.08;;;;;;;4.12;99.46;101786.69;5019104;28;20310;-78
2021/11/16 06:07:30;;;;;;;65.45;28.23;;;;;;;4.12;99.77;101789.28;5034049;28;21289;-77
2021/11/16 06:09:57;;;;;;;72.15;28.88;;;;;;;4.12;99.62;101796.19;4994479;28;20053;-86
2021/11/16 06:12:24;;;;;;;63.17;27.65;;;;;;;4.13;99.57;101787.56;5014999;28;20046;-78
2021/11/16 06:14:50;;;;;;;64.18;27.27;;;;;;;4.14;99.54;101784.16;5013460;28;20141;-77
2021/11/16 06:17:20;;;;;;;65.95;28.45;;;;;;;4.17;99.59;101783.38;5015825;28;20049;-81
2021/11/16 06:19:47;;;;;;;62.50;26.65;;;;;;;4.16;99.30;101779.00;4999430;28;20639;-81
2021/11/16 06:22:14;;;;;;;57.95;25.38;;;;;;;4.13;98.86;101780.69;5021431;28;20131;-78
2021/11/16 06:24:40;;;;;;;58.47;29.35;;;;;;;4.12;99.26;101780.63;5009261;28;21022;-81
2021/11/16 06:27:08;;;;;;;62.00;26.60;;;;;;;4.08;99.57;101782.22;5022355;28;20454;-77
2021/11/16 06:29:36;;;;;;;62.92;26.73;;;;;;;4.04;99.72;101779.47;5003151;28;20511;-76
2021/11/16 06:32:05;;;;;;;63.50;26.48;;;;;;;4.05;99.77;101779.50;5022378;28;20045;-79
2021/11/16 06:34:32;;;;;;;60.88;28.77;;;;;;;4.02;100.00;101786.31;5007311;28;20129;-79
2021/11/16 06:36:59;;;;;;;60.88;29.20;;;;;;;3.97;100.00;101787.00;4997813;28;20067;-77
2021/11/16 06:39:25;;;;;;;64.72;29.25;;;;;;;3.95;100.00;101780.91;5003714;28;20045;-78
2021/11/16 06:41:55;;;;;;;66.35;26.73;;;;;;;3.97;100.00;101781.81;5018500;28;20156;-78
2021/11/16 06:44:22;;;;;;;66.43;29.92;;;;;;;3.96;100.00;101789.53;5041086;28;20171;-81
2021/11/16 06:46:51;;;;;;;67.57;30.58;;;;;;;3.96;100.00;101798.22;5001899;28;20136;-78
2021/11/16 06:49:19;;;;;;;66.97;26.73;;;;;;;3.97;100.00;101786.13;5019159;28;20580;-78
2021/11/16 06:51:49;;;;;;;63.60;26.60;;;;;;;3.98;100.00;101788.78;5020565;28;20072;-82
2021/11/16 06:54:22;;;;;;;63.63;26.40;;;;;;;3.97;100.00;101784.41;5016738;28;20037;-79
2021/11/16 06:56:51;;;;;;;69.43;28.15;;;;;;;3.98;100.00;101785.31;5021262;28;20080;-78
2021/11/16 06:59:25;;;;;;;60.17;27.50;;;;;;;4.00;100.00;101786.22;5016885;28;20046;-77
2021/11/16 07:01:54;;;;;;;65.15;27.30;;;;;;;4.03;100.00;101790.63;5023928;28;20049;-79
2021/11/16 07:04:21;;;;;;;64.80;26.42;;;;;;;4.06;100.00;101795.94;5020455;28;20053;-78
2021/11/16 07:06:51;;;;;;;62.22;26.52;;;;;;;4.05;100.00;101795.06;5014618;28;20057;-80
2021/11/16 07:09:20;;;;;;;68.25;27.23;;;;;;;4.04;100.00;101793.31;5030036;28;20045;-82
2021/11/16 07:11:51;;;;;;;71.68;30.42;;;;;;;4.04;100.00;101790.72;5018450;28;20048;-79
2021/11/16 07:14:21;;;;;;;61.50;27.02;;;;;;;4.05;100.00;101791.59;5022016;28;20041;-82
2021/11/16 07:16:56;;;;;;;60.85;25.33;;;;;;;4.00;100.00;101788.81;5025599;28;20053;-79
2021/11/16 07:19:47;;;;;;;68.65;31.08;;;;;;;4.02;100.00;101788.91;5019142;28;20124;-80
2021/11/16 07:22:31;;;;;;;60.63;25.88;;;;;;;4.06;100.00;101801.13;5018533;28;20140;-79
2021/11/16 07:25:05;;;;;;;51.33;23.95;;;;;;;4.06;100.00;101798.53;4998287;28;20046;-80
2021/11/16 07:27:44;;;;;;;63.28;25.55;;;;;;;4.07;100.00;101796.00;5020650;28;20041;-77
2021/11/16 07:30:18;;;;;;;60.30;25.83;;;;;;;4.09;100.00;101801.22;5026344;28;20504;-77
2021/11/16 07:32:50;;;;;;;49.25;22.63;;;;;;;4.09;100.00;101802.13;5025108;28;20044;-79
2021/11/16 07:35:23;;;;;;;56.22;24.90;;;;;;;4.12;100.00;101797.06;5015231;28;20049;-79
2021/11/16 07:37:55;;;;;;;47.92;22.95;;;;;;;4.12;99.52;101802.25;5033930;28;20061;-77
2021/11/16 07:40:23;;;;;;;50.33;22.30;;;;;;;4.11;99.38;101800.47;5035779;28;20038;-83
2021/11/16 07:42:56;;;;;;;53.53;24.10;;;;;;;4.07;99.49;101798.59;5031706;28;20098;-77
2021/11/16 07:45:27;;;;;;;54.13;24.60;;;;;;;4.09;99.71;101796.06;5032883;28;20044;-77
2021/11/16 07:48:05;;;;;;;54.30;22.92;;;;;;;4.12;99.62;101801.38;5010225;28;20045;-77
2021/11/16 07:50:32;;;;;;;65.65;25.65;;;;;;;4.15;100.00;101806.66;5022134;28;20526;-77
2021/11/16 07:53:39;;;;;;;56.90;24.05;;;;;;;4.19;99.50;101802.47;5019535;28;20695;-77
2021/11/16 07:56:15;;;;;;;56.28;24.40;;;;;;;4.22;99.33;101806.03;5035284;28;20038;-78
2021/11/16 07:58:56;;;;;;;54.33;23.48;;;;;;;4.27;99.19;101807.06;5022997;28;20034;-76
2021/11/16 08:01:36;;;;;;;54.67;23.23;;;;;;;4.32;99.35;101814.16;5019800;28;20053;-76
2021/11/16 08:04:20;;;;;;;51.97;22.45;;;;;;;4.34;99.25;101808.19;5036238;28;20121;-77
2021/11/16 08:06:57;;;;;;;60.85;24.98;;;;;;;4.33;99.15;101813.31;5025084;28;20091;-79
2021/11/16 08:09:29;;;;;;;51.83;23.40;;;;;;;4.28;99.46;101808.84;5019069;28;21041;-78
2021/11/16 08:12:30;;;;;;;48.88;22.48;;;;;;;4.25;99.63;101813.94;5019365;28;20657;-79
2021/11/16 08:15:10;;;;;;;50.97;23.92;;;;;;;4.24;100.00;101821.66;5021801;28;20130;-79
2021/11/16 08:17:39;;;;;;;58.42;26.27;;;;;;;4.22;100.00;101818.97;5024401;28;20140;-80
2021/11/16 08:20:10;;;;;;;56.45;26.45;;;;;;;4.25;100.00;101818.22;5016434;28;20049;-77
2021/11/16 08:22:37;;;;;;;64.00;27.13;;;;;;;4.25;100.00;101810.44;5019981;28;20095;-79
2021/11/16 08:25:06;;;;;;;62.35;27.08;;;;;;;4.22;100.00;101816.38;5020324;28;20069;-79
2021/11/16 08:27:37;;;;;;;59.80;25.80;;;;;;;4.25;100.00;101810.44;5020300;28;20064;-78
2021/11/16 08:30:10;;;;;;;50.83;23.55;;;;;;;4.27;100.00;101801.88;5021917;28;20053;-77
2021/11/16 08:32:40;;;;;;;58.40;24.02;;;;;;;4.34;100.00;101804.69;5017593;28;20169;-81
2021/11/16 08:35:17;;;;;;;49.45;22.77;;;;;;;4.37;100.00;101799.63;5016567;28;20041;-79
2021/11/16 08:37:46;;;;;;;66.30;29.08;;;;;;;4.38;99.86;101794.50;5036435;28;20049;-79
2021/11/16 08:40:28;;;;;;;57.50;27.08;;;;;;;4.37;99.67;101790.16;5017679;28;20046;-79
2021/11/16 08:43:12;;;;;;;56.38;25.17;;;;;;;4.40;100.00;101789.38;5031243;28;20056;-78
2021/11/16 08:45:43;;;;;;;53.47;24.75;;;;;;;4.44;100.00;101788.66;5015173;28;20077;-77
2021/11/16 08:48:23;;;;;;;53.25;23.98;;;;;;;4.47;99.89;101783.56;5016106;28;20037;-77
2021/11/16 08:50:55;;;;;;;65.93;28.30;;;;;;;4.51;99.75;101787.13;5015422;28;20448;-78
2021/11/16 08:53:26;;;;;;;61.75;27.83;;;;;;;4.54;99.90;101780.34;5019803;28;20056;-78
2021/11/16 08:55:53;;;;;;;58.42;26.80;;;;;;;4.55;99.57;101784.72;5018857;28;20050;-77
2021/11/16 08:58:21;;;;;;;59.47;26.55;;;;;;;4.57;100.00;101787.34;5019709;28;20049;-77
2021/11/16 09:00:53;;;;;;;62.80;29.33;;;;;;;4.58;100.00;101779.63;4999277;28;20788;-80
2021/11/16 09:03:26;;;;;;;69.50;28.05;;;;;;;4.57;100.00;101790.81;5018769;28;20037;-78
2021/11/16 09:05:54;;;;;;;65.60;27.38;;;;;;;4.57;100.00;101783.03;5020280;28;20057;-76
2021/11/16 09:08:27;;;;;;;59.63;26.10;;;;;;;4.55;99.88;101774.34;5013180;28;20121;-77
2021/11/16 09:11:13;;;;;;;55.35;24.98;;;;;;;4.51;99.92;101776.75;5036753;28;20156;-78
2021/11/16 09:13:40;;;;;;;58.83;25.05;;;;;;;4.51;100.00;101789.72;5006581;28;20130;-79
2021/11/16 09:16:13;;;;;;;67.30;27.38;;;;;;;4.47;100.00;101781.84;5013648;28;20049;-80
2021/11/16 09:18:47;;;;;;;62.78;27.80;;;;;;;4.45;100.00;101770.53;5022689;28;20106;-83
2021/11/16 09:21:26;;;;;;;56.70;24.95;;;;;;;4.44;100.00;101779.13;5020130;28;20056;-78
2021/11/16 09:24:06;;;;;;;62.30;25.85;;;;;;;4.44;100.00;101779.13;5015171;28;20053;-77
2021/11/16 09:26:46;;;;;;;53.67;22.95;;;;;;;4.44;100.00;101766.19;5030543;28;20083;-78
2021/11/16 09:29:21;;;;;;;62.67;28.33;;;;;;;4.47;100.00;101775.78;5017041;28;20079;-80
2021/11/16 09:31:58;;;;;;;65.70;29.90;;;;;;;4.49;100.00;101773.25;5018974;28;20060;-77
2021/11/16 09:34:38;;;;;;;61.08;28.63;;;;;;;4.51;100.00;101763.81;5015467;28;20041;-78
2021/11/16 09:37:12;;;;;;;55.70;26.45;;;;;;;4.51;99.92;101756.94;5017351;28;20088;-78
2021/11/16 09:39:59;;;;;;;61.60;27.30;;;;;;;4.50;99.90;101749.97;5013296;28;20120;-79
2021/11/16 09:42:35;;;;;;;60.88;26.65;;;;;;;4.50;99.81;101760.34;5020292;28;20136;-80
2021/11/16 09:45:24;;;;;;;62.40;25.83;;;;;;;4.51;99.86;101751.75;5021308;28;20144;-78
2021/11/16 09:47:51;;;;;;;63.55;25.35;;;;;;;4.54;99.72;101750.97;5000931;28;20137;-81
2021/11/16 09:50:24;;;;;;;62.03;25.98;;;;;;;4.56;99.70;101747.59;5020154;28;20038;-80
2021/11/16 09:52:54;;;;;;;58.00;26.00;;;;;;;4.58;99.46;101756.28;5006102;28;20060;-78
2021/11/16 09:55:35;;;;;;;56.20;25.45;;;;;;;4.57;99.53;101754.50;5040159;28;20056;-80
2021/11/16 09:58:12;;;;;;;52.95;24.75;;;;;;;4.54;99.45;101740.59;5020931;28;20127;-78
2021/11/16 10:00:44;;;;;;;62.42;26.92;;;;;;;4.47;99.84;101745.56;5021272;28;20042;-78
2021/11/16 10:03:15;;;;;;;59.05;27.20;;;;;;;4.45;100.00;101742.03;5017687;28;20041;-81
2021/11/16 10:05:51;;;;;;;66.30;29.13;;;;;;;4.51;100.00;101740.47;5021139;28;20044;-83
2021/11/16 10:08:19;;;;;;;54.42;25.55;;;;;;;4.53;100.00;101739.69;5003842;28;20120;-81
2021/11/16 10:10:55;;;;;;;61.65;26.02;;;;;;;4.55;100.00;101731.94;5024967;28;20488;-82
2021/11/16 10:13:25;;;;;;;57.95;24.90;;;;;;;4.53;99.78;101739.69;5008200;28;20514;-80
2021/11/16 10:15:56;;;;;;;55.75;25.67;;;;;;;4.53;99.85;101733.63;5004038;28;20368;-80
2021/11/16 10:18:26;;;;;;;64.57;26.20;;;;;;;4.54;99.96;101732.81;5020037;28;20038;-78
2021/11/16 10:20:55;;;;;;;67.32;27.15;;;;;;;4.56;100.00;101733.72;5022419;28;20118;-77
2021/11/16 10:23:37;;;;;;;53.33;24.42;;;;;;;4.57;100.00;101730.31;5026570;28;20033;-79
2021/11/16 10:26:06;;;;;;;59.08;26.30;;;;;;;4.62;100.00;101741.72;5019629;28;20056;-80
2021/11/16 10:28:37;;;;;;;66.28;27.10;;;;;;;4.63;100.00;101733.97;5004232;28;20060;-78
2021/11/16 10:31:06;;;;;;;62.05;27.63;;;;;;;4.67;100.00;101731.47;5037604;28;20221;-78
2021/11/16 10:33:39;;;;;;;58.15;24.80;;;;;;;4.68;99.98;101728.97;5037938;28;20484;-78
2021/11/16 10:36:13;;;;;;;68.97;27.52;;;;;;;4.70;100.00;101729.00;5022557;28;20121;-81
2021/11/16 10:38:52;;;;;;;55.72;24.77;;;;;;;4.74;100.00;101733.44;5017415;28;20504;-81
2021/11/16 10:41:26;;;;;;;60.83;27.55;;;;;;;4.73;99.60;101724.81;5022579;28;20053;-78
2021/11/16 10:44:12;;;;;;;65.57;26.48;;;;;;;4.70;99.87;101727.28;5035616;28;20048;-77
2021/11/16 10:46:43;;;;;;;62.92;28.13;;;;;;;4.70;100.00;101722.09;5016416;28;20050;-78
2021/11/16 10:49:19;;;;;;;59.97;26.00;;;;;;;4.67;100.00;101715.91;5021448;28;20048;-78
2021/11/16 10:51:48;;;;;;;56.22;26.27;;;;;;;4.64;100.00;101702.03;5022194;28;20072;-76
2021/11/16 10:54:18;;;;;;;58.85;24.98;;;;;;;4.64;100.00;101701.13;5017190;28;20038;-77
2021/11/16 10:56:45;;;;;;;60.38;27.88;;;;;;;4.64;100.00;101701.13;5021793;28;20068;-78
2021/11/16 10:59:19;;;;;;;69.70;28.38;;;;;;;4.67;100.00;101700.34;5001342;28;20137;-78
2021/11/16 11:01:53;;;;;;;57.28;25.73;;;;;;;4.67;100.00;101702.94;5025370;28;20124;-78
2021/11/16 11:04:23;;;;;;;63.80;27.42;;;;;;;4.69;100.00;101703.88;5018755;28;20108;-79
2021/11/16 11:06:50;;;;;;;59.65;26.88;;;;;;;4.71;100.00;101695.31;5024586;28;20035;-79
2021/11/16 11:09:19;;;;;;;58.78;25.00;;;;;;;4.73;100.00;101695.38;5012292;28;20096;-81
2021/11/16 11:11:49;;;;;;;64.72;24.73;;;;;;;4.70;100.00;101690.09;5016305;28;20056;-78
2021/11/16 11:14:34;;;;;;;59.97;25.45;;;;;;;4.69;100.00;101686.59;5021158;28;20052;-77
2021/11/16 11:17:08;;;;;;;56.85;23.67;;;;;;;4.65;100.00;101687.34;5016947;28;20390;-79
2021/11/16 11:19:43;;;;;;;53.42;24.55;;;;;;;4.60;100.00;101687.22;5024849;28;20224;-78
2021/11/16 11:22:19;;;;;;;52.42;22.60;;;;;;;4.60;100.00;101681.13;5019516;28;20052;-79
2021/11/16 11:24:58;;;;;;;57.72;24.10;;;;;;;4.62;100.00;101685.53;5038624;28;20042;-79
2021/11/16 11:27:31;;;;;;;61.00;26.55;;;;;;;4.63;100.00;101674.31;5025329;28;20049;-81
2021/11/16 11:29:59;;;;;;;56.75;24.48;;;;;;;4.64;100.00;101676.09;5025946;28;20045;-81
2021/11/16 11:32:41;;;;;;;53.95;24.95;;;;;;;4.65;100.00;101666.59;5028103;28;20540;-78
2021/11/16 11:35:11;;;;;;;57.58;24.70;;;;;;;4.69;100.00;101673.63;5027172;28;20064;-81
2021/11/16 11:37:52;;;;;;;54.00;23.25;;;;;;;4.74;100.00;101671.19;5024671;28;20573;-82
2021/11/16 11:40:28;;;;;;;54.28;23.58;;;;;;;4.80;100.00;101664.47;5025823;28;20038;-77